Weston Place, Pennsylvania
Current Conditions -  °F | °C
As of 7:35 PM on Friday 24 Oct 2014 (Local Time) from KHZL Reporting Station
Clear Clear  
Wind Chill: 57°   Ceiling: Unl
Heat Index: 57°   Visibility: 10mi
Dew Point: 32°   Wind: 9mph
Humidity: 38%   Direction: 320°NW
Pressure: 29.91"   Gusts: 18mph
Location:  40.8208°N, 76.1672°W
Report Text: KHZL 242335Z AUTO 32008G16KT 10SM CLR 14/00 A2991 RMK AO2
Loading
Personal Weather Stations






























Interactive Weather Map
Tropical Storm Tracking
New forecast layout! Learn more

10-Day Weather Forecast

Advertisements
Track Severe Weather on mobile